Aérodrome :
LOGIN :

S'inscrire | Disclaimer

   EN    FR    IT 

 










Légende :    VFR   VFR Marginal   IFR   IFR Intensif   IFR Très Intensif
Visi : 
Plafond : 
>= 8 km
>= 3000ft
5 à 8 km
1000 à 3000 ft
1500m à 5 km
500 à 1000 ft
800 à 1500m
200 à 500 ft
< 800m
< 200 ft
Symboles :   Orages  Brouillard  Fortes neiges  Fortes précipitations  Vent > 20 kt
SIGMETs :   Divers  Orages  Givrage  Turbulence  Onde Orograph.  Cendres Volcan.






- Altitude de l'aérodrome : 42 ft
- Code IATA : BOO


ENBO - Bodø

DERNIER METAR :
  • 301950Z 14013KT 9999 9000NE FEW012 BKN020 01/M05 Q1011 TEMPO 1500 SNRA VV008

METARs EXPIRÉS :
  • 301920Z 14014KT 9999 FEW012 BKN025 00/M05 Q1013 TEMPO 2000 SNRA VV010
  • 301850Z 14013KT 9999 FEW015 BKN025 M00/M06 Q1014 TEMPO 1500 SNRA VV008
  • 301820Z 14012KT 9999 SCT020 BKN030 M00/M07 Q1016 TEMPO 1500 SNRA VV008
  • 301750Z 15012KT 9999 SCT020 BKN030 M00/M07 Q1017 TEMPO 1500 SNRA VV008
  • 301720Z 16010KT 9999 FEW020 BKN030 M00/M08 Q1018 TEMPO 1500 SNRA VV008

TAF TAF ENBO
Valide du 30 à 18h jusqu'au 31 à 18h UTC


3018/3118 18012KT 9999 -SNRA FEW020 BKN030
TEMPO 3018/3022 1500 SNRA VV008
BECMG 3020/3023 26028KT FEW012CB BKN018
TEMPO 3022/3112 26030G45KT 1500 SHSNRA VV008
TEMPO 3112/3118 30040G55KT 2000 SHSNRA VV010
BECMG 3114/3116 32028KT



MET'MAP, la Météo Aéronautique d'un coup d'oeil ! - Copyright ORBIFLY Décembre 2007 - Disclaimer

ORBIFLY MET'MAP TEAM :

Programmation & Développement : Alexandra Zaïnal
Sur une idée originale de : Baudouin d'Aumeries
Assistance à la programmation : Marc-Olivier Méhu
Soutien technique & logistique : Manuel Goepfert

Contact : metmap@orbifly.com




SOURCES & CREDITS :

   NOAA